createdAt,value
2019-05-02T00:01:01.151Z,99.60
2019-05-02T00:03:36.032Z,99.60
2019-05-02T00:06:07.362Z,99.50
2019-05-02T00:08:38.391Z,99.70
2019-05-02T00:11:11.461Z,99.80
2019-05-02T00:13:42.233Z,99.50
2019-05-02T00:16:14.178Z,99.20
2019-05-02T00:18:46.743Z,99.40
2019-05-02T00:21:17.313Z,99.50
2019-05-02T00:23:47.934Z,99.60
2019-05-02T00:26:18.507Z,99.70
2019-05-02T00:28:49.930Z,99.90
2019-05-02T00:31:21.653Z,99.90
2019-05-02T00:33:52.120Z,99.90
2019-05-02T00:36:22.607Z,99.90
2019-05-02T00:38:53.077Z,99.90
2019-05-02T00:41:24.344Z,99.90
2019-05-02T00:43:54.847Z,99.90
2019-05-02T00:46:25.343Z,99.90
2019-05-02T00:48:59.767Z,99.90
2019-05-02T00:51:29.742Z,99.90
2019-05-02T00:54:00.250Z,99.90
2019-05-02T00:56:30.746Z,99.90
2019-05-02T00:59:02.242Z,99.90
2019-05-02T01:01:35.907Z,99.90
2019-05-02T01:04:27.645Z,99.90
2019-05-02T01:06:56.865Z,99.90
2019-05-02T01:09:27.564Z,99.90
2019-05-02T01:11:58.058Z,99.90
2019-05-02T01:14:31.721Z,99.90
2019-05-02T01:17:00.826Z,99.90
2019-05-02T01:19:31.642Z,99.90
2019-05-02T01:22:02.792Z,99.90
2019-05-02T01:24:34.077Z,99.90
2019-05-02T01:27:07.273Z,99.90
2019-05-02T01:29:39.685Z,99.90
2019-05-02T01:32:11.794Z,99.90
2019-05-02T01:34:54.452Z,99.90
2019-05-02T01:37:27.285Z,99.90
2019-05-02T01:39:57.802Z,99.90
2019-05-02T01:42:39.412Z,99.90
2019-05-02T01:45:00.647Z,99.90
2019-05-02T01:47:34.162Z,99.90
2019-05-02T01:50:03.404Z,99.90
2019-05-02T01:52:34.443Z,99.90
2019-05-02T01:55:07.253Z,99.90
2019-05-02T01:57:40.012Z,99.90
2019-05-02T02:00:11.539Z,99.90
2019-05-02T02:02:41.967Z,99.90
2019-05-02T02:05:12.807Z,99.90
2019-05-02T02:07:43.308Z,99.90
2019-05-02T02:10:14.996Z,99.90
2019-05-02T02:13:02.824Z,99.90
2019-05-02T02:15:18.622Z,99.90
2019-05-02T02:17:51.465Z,99.90
2019-05-02T02:20:38.779Z,99.90
2019-05-02T02:23:10.160Z,99.90
2019-05-02T02:25:45.298Z,99.90
2019-05-02T02:28:15.805Z,99.90
2019-05-02T02:30:46.335Z,99.90
2019-05-02T02:33:16.851Z,99.90
2019-05-02T02:35:50.351Z,99.90
2019-05-02T02:38:19.520Z,99.90
2019-05-02T02:40:49.999Z,99.90
2019-05-02T02:43:33.382Z,99.90
2019-05-02T02:46:04.319Z,99.90
2019-05-02T02:48:40.778Z,99.90
2019-05-02T02:51:07.771Z,99.90
2019-05-02T02:53:38.335Z,99.90
2019-05-02T02:56:10.640Z,99.90
2019-05-02T02:58:45.649Z,99.90
2019-05-02T03:01:27.344Z,99.90
2019-05-02T03:03:47.047Z,99.90
2019-05-02T03:06:17.614Z,99.90
2019-05-02T03:08:49.273Z,99.90
2019-05-02T03:11:23.831Z,99.90
2019-05-02T03:14:05.758Z,99.90
2019-05-02T03:16:29.241Z,99.90
2019-05-02T03:18:59.878Z,99.90
2019-05-02T03:21:30.368Z,99.90
2019-05-02T03:24:03.379Z,99.90
2019-05-02T03:26:33.965Z,99.90
2019-05-02T03:29:04.966Z,99.90
2019-05-02T03:31:35.478Z,99.90
2019-05-02T03:34:06.445Z,99.90
2019-05-02T03:36:37.439Z,99.90
2019-05-02T03:39:14.963Z,99.90
2019-05-02T03:41:40.431Z,99.90
2019-05-02T03:44:18.153Z,99.90
2019-05-02T03:46:43.836Z,99.90
2019-05-02T03:49:14.426Z,99.90
2019-05-02T03:51:44.914Z,99.90
2019-05-02T03:54:19.533Z,99.90
2019-05-02T03:56:51.087Z,99.90
2019-05-02T03:59:21.205Z,99.90
2019-05-02T04:01:51.999Z,99.90
2019-05-02T04:04:23.528Z,99.90
2019-05-02T04:06:55.069Z,99.90
2019-05-02T04:09:42.536Z,99.90
2019-05-02T04:12:18.702Z,99.90
2019-05-02T04:14:41.658Z,99.90
2019-05-02T04:17:12.589Z,99.90
2019-05-02T04:19:43.290Z,99.90
2019-05-02T04:22:15.538Z,99.90
2019-05-02T04:24:54.390Z,99.90
2019-05-02T04:27:18.243Z,99.90
2019-05-02T04:29:48.744Z,99.90
2019-05-02T04:32:19.221Z,99.90
2019-05-02T04:34:55.799Z,99.90
2019-05-02T04:37:21.879Z,99.90
2019-05-02T04:39:53.708Z,99.90
2019-05-02T04:42:24.558Z,99.90
2019-05-02T04:45:14.026Z,99.90
2019-05-02T04:47:29.044Z,99.90
2019-05-02T04:49:59.425Z,99.90
2019-05-02T04:52:29.885Z,99.90
2019-05-02T04:55:14.766Z,99.90
2019-05-02T04:57:36.731Z,99.90
2019-05-02T05:00:11.529Z,99.90
2019-05-02T05:02:40.356Z,99.90
2019-05-02T05:05:10.991Z,99.90
2019-05-02T05:07:46.225Z,99.90
2019-05-02T05:10:13.727Z,99.90
2019-05-02T05:12:44.208Z,99.90
2019-05-02T05:15:33.834Z,99.90
2019-05-02T05:17:47.893Z,99.90
2019-05-02T05:20:19.272Z,99.90
2019-05-02T05:22:49.730Z,99.90
2019-05-02T05:25:21.859Z,99.90
2019-05-02T05:27:57.244Z,99.90
2019-05-02T05:30:24.521Z,99.90
2019-05-02T05:32:55.032Z,99.90
2019-05-02T05:35:25.554Z,99.90
2019-05-02T05:37:57.345Z,99.90
2019-05-02T05:40:31.838Z,99.90
2019-05-02T05:43:02.676Z,99.90
2019-05-02T05:45:32.354Z,99.90
2019-05-02T05:48:02.842Z,99.90
2019-05-02T05:50:39.816Z,99.90
2019-05-02T05:53:07.497Z,99.90
2019-05-02T05:55:38.376Z,99.90
2019-05-02T05:58:15.218Z,99.90
2019-05-02T06:00:45.945Z,99.90
2019-05-02T06:03:14.221Z,99.90
2019-05-02T06:05:44.847Z,99.90
2019-05-02T06:08:18.346Z,99.90
2019-05-02T06:10:48.427Z,99.90
2019-05-02T06:13:18.904Z,99.00
2019-05-02T06:16:01.685Z,97.90
2019-05-02T06:18:21.577Z,96.30
2019-05-02T06:20:52.069Z,96.20
2019-05-02T06:23:22.575Z,95.60
2019-05-02T06:25:53.076Z,94.50
2019-05-02T06:28:23.585Z,94.20
2019-05-02T06:30:54.085Z,93.70
2019-05-02T06:33:25.950Z,93.90
2019-05-02T06:36:00.997Z,93.40
2019-05-02T06:38:29.003Z,93.30
2019-05-02T06:40:59.528Z,93.10
2019-05-02T06:43:29.991Z,93.00
2019-05-02T06:46:00.580Z,92.60
2019-05-02T06:48:31.047Z,92.10
2019-05-02T06:51:01.553Z,92.00
2019-05-02T06:53:34.959Z,91.90
2019-05-02T06:56:07.996Z,91.60
2019-05-02T06:58:37.140Z,91.40
2019-05-02T07:01:08.877Z,91.00
2019-05-02T07:03:41.389Z,91.00
2019-05-02T07:06:11.657Z,90.90
2019-05-02T07:08:42.164Z,89.40
2019-05-02T07:11:12.653Z,89.40
2019-05-02T07:13:43.825Z,89.20
2019-05-02T07:16:36.846Z,89.00
2019-05-02T07:18:52.746Z,89.10
2019-05-02T07:21:23.837Z,86.60
2019-05-02T07:23:55.245Z,88.10
2019-05-02T07:26:25.859Z,87.50
2019-05-02T07:28:56.375Z,87.60
2019-05-02T07:31:26.907Z,88.40
2019-05-02T07:33:57.382Z,89.30
2019-05-02T07:36:31.135Z,86.50
2019-05-02T07:39:05.183Z,86.00
2019-05-02T07:41:33.409Z,83.40
2019-05-02T07:44:04.439Z,82.10
2019-05-02T07:46:35.056Z,83.40
2019-05-02T07:49:06.564Z,83.80
2019-05-02T07:51:37.081Z,80.90
2019-05-02T07:54:07.620Z,75.30
2019-05-02T07:56:38.124Z,75.50
2019-05-02T07:59:08.600Z,77.80
2019-05-02T08:01:39.259Z,79.20
2019-05-02T08:04:12.842Z,77.00
2019-05-02T08:06:44.614Z,71.10
2019-05-02T08:09:14.175Z,73.60
2019-05-02T08:11:44.741Z,74.70
2019-05-02T08:14:15.236Z,76.80
2019-05-02T08:16:45.702Z,74.50
2019-05-02T08:19:16.207Z,76.70
2019-05-02T08:21:46.679Z,74.10
2019-05-02T08:24:17.184Z,70.70
2019-05-02T08:26:53.485Z,66.70
2019-05-02T08:29:23.344Z,65.90
2019-05-02T08:31:55.315Z,65.60
2019-05-02T08:34:33.514Z,65.90
2019-05-02T08:37:05.296Z,65.00
2019-05-02T08:39:35.859Z,61.00
2019-05-02T08:42:07.029Z,64.40
2019-05-02T08:44:50.223Z,62.90
2019-05-02T08:47:18.728Z,65.10
2019-05-02T08:49:42.604Z,67.60
2019-05-02T08:52:13.277Z,64.20
2019-05-02T08:54:43.799Z,63.90
2019-05-02T08:57:14.706Z,61.50
2019-05-02T08:59:45.347Z,62.80
2019-05-02T09:02:15.841Z,66.80
2019-05-02T09:04:57.865Z,63.80
2019-05-02T09:07:19.662Z,63.00
2019-05-02T09:09:50.218Z,60.80
2019-05-02T09:12:22.820Z,59.60
2019-05-02T09:14:52.899Z,57.70
2019-05-02T09:17:35.504Z,59.90
2019-05-02T09:20:02.271Z,60.50
2019-05-02T09:22:27.828Z,62.10
2019-05-02T09:24:58.362Z,60.90
2019-05-02T09:27:28.963Z,60.50
2019-05-02T09:29:59.448Z,60.10
2019-05-02T09:32:29.939Z,60.20
2019-05-02T09:35:02.299Z,59.90
2019-05-02T09:37:32.648Z,60.80
2019-05-02T09:40:06.831Z,61.80
2019-05-02T09:42:35.622Z,59.50
2019-05-02T09:45:09.488Z,61.10
2019-05-02T09:47:53.917Z,59.80
2019-05-02T09:50:20.538Z,60.40
2019-05-02T09:52:49.215Z,59.50
2019-05-02T09:55:20.003Z,60.20
2019-05-02T09:57:51.959Z,59.20
2019-05-02T10:00:36.045Z,60.70
2019-05-02T10:03:04.471Z,61.60
2019-05-02T10:05:35.086Z,60.60
2019-05-02T10:08:09.114Z,60.50
2019-05-02T10:10:44.335Z,59.80
2019-05-02T10:13:12.220Z,60.80
2019-05-02T10:15:42.751Z,59.80
2019-05-02T10:18:14.639Z,59.60
2019-05-02T10:20:45.589Z,59.80
2019-05-02T10:23:19.614Z,60.20
2019-05-02T10:25:48.263Z,61.30
2019-05-02T10:28:18.737Z,60.60
2019-05-02T10:30:52.584Z,61.30
2019-05-02T10:33:22.546Z,58.80
2019-05-02T10:35:53.258Z,57.90
2019-05-02T10:38:23.720Z,59.80
2019-05-02T10:41:01.574Z,60.00
2019-05-02T10:43:28.348Z,59.40
2019-05-02T10:46:01.828Z,59.80
2019-05-02T10:48:34.195Z,59.30
2019-05-02T10:51:25.874Z,59.20
2019-05-02T10:53:56.340Z,60.60
2019-05-02T10:56:25.716Z,60.60
2019-05-02T10:58:56.239Z,60.30
2019-05-02T11:01:28.387Z,61.10
2019-05-02T11:04:02.120Z,61.80
2019-05-02T11:06:37.256Z,61.40
2019-05-02T11:09:08.447Z,61.30
2019-05-02T11:11:39.749Z,59.00
2019-05-02T11:14:12.079Z,59.30
2019-05-02T11:16:44.186Z,60.30
2019-05-02T11:19:32.345Z,59.30
2019-05-02T11:22:03.008Z,58.40
2019-05-02T11:24:33.548Z,58.20
2019-05-02T11:27:04.254Z,60.00
2019-05-02T11:29:34.753Z,57.90
2019-05-02T11:32:05.422Z,56.80
2019-05-02T11:34:35.906Z,57.30
2019-05-02T11:37:06.606Z,56.30
2019-05-02T11:39:44.550Z,56.20
2019-05-02T11:42:09.352Z,55.20
2019-05-02T11:44:41.754Z,54.80
2019-05-02T11:47:12.686Z,55.10
2019-05-02T11:49:46.870Z,53.70
2019-05-02T11:52:15.456Z,53.20
2019-05-02T11:54:48.523Z,53.80
2019-05-02T11:57:22.726Z,54.40
2019-05-02T11:59:52.084Z,56.30
2019-05-02T12:02:34.390Z,58.10
2019-05-02T12:05:08.918Z,57.50
2019-05-02T12:07:39.420Z,57.30
2019-05-02T12:10:12.398Z,57.30
2019-05-02T12:12:42.968Z,56.60
2019-05-02T12:15:13.637Z,55.60
2019-05-02T12:17:44.155Z,56.20
2019-05-02T12:20:14.771Z,57.00
2019-05-02T12:22:45.324Z,55.80
2019-05-02T12:25:15.859Z,54.60
2019-05-02T12:27:46.457Z,56.20
2019-05-02T12:30:17.205Z,58.80
2019-05-02T12:32:47.727Z,70.00
2019-05-02T12:35:18.296Z,80.70
2019-05-02T12:37:53.692Z,86.70
2019-05-02T12:40:21.766Z,90.90
2019-05-02T12:42:52.614Z,92.30
2019-05-02T12:45:23.270Z,90.80
2019-05-02T12:47:53.756Z,89.20
2019-05-02T12:50:24.397Z,90.90
2019-05-02T12:52:55.725Z,90.40
2019-05-02T12:55:26.404Z,89.40
2019-05-02T12:57:56.879Z,84.80
2019-05-02T13:00:27.451Z,81.80
2019-05-02T13:03:01.988Z,84.70
2019-05-02T13:05:32.683Z,83.30
2019-05-02T13:08:03.189Z,83.40
2019-05-02T13:10:36.174Z,79.20
2019-05-02T13:13:07.019Z,59.50
2019-05-02T13:15:39.375Z,58.40
2019-05-02T13:18:09.956Z,55.90
2019-05-02T13:20:41.729Z,53.10
2019-05-02T13:23:34.092Z,54.00
2019-05-02T13:26:10.232Z,53.10
2019-05-02T13:28:36.126Z,53.20
2019-05-02T13:31:06.728Z,52.40
2019-05-02T13:33:42.790Z,51.90
2019-05-02T13:36:42.124Z,52.60
2019-05-02T13:39:17.378Z,53.00
2019-05-02T13:41:48.070Z,53.80
2019-05-02T13:44:21.838Z,55.40
2019-05-02T13:46:53.588Z,55.80
2019-05-02T13:49:24.285Z,56.20
2019-05-02T13:51:54.811Z,56.00
2019-05-02T13:54:25.777Z,54.00
2019-05-02T13:56:56.337Z,53.50
2019-05-02T13:59:26.845Z,51.70
2019-05-02T14:01:57.315Z,50.40
2019-05-02T14:04:41.530Z,50.60
2019-05-02T14:07:17.259Z,50.20
2019-05-02T14:09:45.885Z,49.50
2019-05-02T14:12:16.208Z,47.30
2019-05-02T14:14:48.339Z,49.00
2019-05-02T14:17:18.912Z,51.10
2019-05-02T14:19:53.015Z,49.50
2019-05-02T14:22:23.311Z,50.30
2019-05-02T14:24:53.812Z,50.50
2019-05-02T14:27:26.191Z,49.90
2019-05-02T14:29:56.802Z,51.00
2019-05-02T14:32:27.303Z,49.90
2019-05-02T14:34:59.901Z,51.70
2019-05-02T14:37:32.067Z,50.40
2019-05-02T14:40:04.363Z,50.80
2019-05-02T14:42:35.118Z,51.70
2019-05-02T14:45:17.793Z,51.10
2019-05-02T14:47:39.457Z,50.00
2019-05-02T14:50:23.482Z,47.60
2019-05-02T14:52:45.750Z,47.30
2019-05-02T14:55:17.101Z,47.10
2019-05-02T14:57:48.822Z,47.30
2019-05-02T15:00:22.235Z,48.40
2019-05-02T15:02:52.804Z,49.70
2019-05-02T15:05:27.894Z,50.50
2019-05-02T15:08:01.188Z,48.90
2019-05-02T15:10:27.845Z,44.50
2019-05-02T15:12:59.457Z,44.90
2019-05-02T15:15:33.959Z,44.10
2019-05-02T15:18:02.808Z,43.80
2019-05-02T15:20:38.894Z,39.70
2019-05-02T15:23:07.201Z,37.30
2019-05-02T15:25:37.730Z,35.80
2019-05-02T15:28:09.841Z,36.70
2019-05-02T15:30:44.808Z,35.70
2019-05-02T15:33:17.025Z,35.80
2019-05-02T15:35:47.984Z,35.70
2019-05-02T15:38:24.596Z,36.80
2019-05-02T15:40:53.497Z,36.00
2019-05-02T15:43:22.818Z,35.20
2019-05-02T15:45:53.325Z,32.90
2019-05-02T15:48:27.519Z,32.50
2019-05-02T15:50:59.994Z,31.10
2019-05-02T15:53:39.001Z,30.20
2019-05-02T15:56:18.599Z,31.30
2019-05-02T15:58:39.993Z,32.80
2019-05-02T16:01:11.994Z,34.10
2019-05-02T16:03:46.281Z,35.50
2019-05-02T16:06:21.070Z,35.40
2019-05-02T16:08:48.723Z,35.50
2019-05-02T16:11:19.807Z,35.10
2019-05-02T16:13:55.633Z,35.00
2019-05-02T16:16:24.200Z,35.40
2019-05-02T16:18:54.716Z,36.70
2019-05-02T16:21:30.637Z,37.50
2019-05-02T16:24:22.498Z,38.40
2019-05-02T16:26:56.832Z,39.50
2019-05-02T16:29:28.710Z,40.60
2019-05-02T16:32:06.322Z,41.60
2019-05-02T16:34:54.206Z,42.40
2019-05-02T16:37:22.762Z,43.30
2019-05-02T16:39:54.802Z,44.20
2019-05-02T16:42:25.286Z,44.50
2019-05-02T16:44:55.790Z,45.20
2019-05-02T16:47:26.335Z,46.10
2019-05-02T16:49:56.836Z,46.60
2019-05-02T16:52:27.335Z,46.60
2019-05-02T16:54:57.861Z,47.10
2019-05-02T16:57:28.405Z,47.60
2019-05-02T17:00:01.249Z,47.40
2019-05-02T17:02:32.466Z,47.90
2019-05-02T17:05:08.367Z,47.80
2019-05-02T17:07:41.091Z,47.90
2019-05-02T17:10:17.619Z,48.20
2019-05-02T17:12:47.245Z,48.40
2019-05-02T17:15:35.738Z,48.10
2019-05-02T17:18:18.006Z,48.90
2019-05-02T17:20:39.754Z,49.70
2019-05-02T17:23:12.794Z,50.70
2019-05-02T17:25:43.414Z,52.70
2019-05-02T17:28:13.984Z,53.80
2019-05-02T17:30:44.452Z,54.20
2019-05-02T17:33:16.386Z,55.10
2019-05-02T17:35:52.234Z,55.90
2019-05-02T17:38:27.280Z,56.70
2019-05-02T17:40:54.255Z,57.40
2019-05-02T17:43:23.859Z,57.80
2019-05-02T17:45:56.256Z,58.90
2019-05-02T17:48:26.563Z,59.90
2019-05-02T17:50:59.417Z,60.80
2019-05-02T17:53:33.931Z,62.10
2019-05-02T17:56:02.494Z,63.00
2019-05-02T17:58:33.047Z,64.50
2019-05-02T18:01:05.264Z,65.60
2019-05-02T18:03:35.767Z,66.70
2019-05-02T18:06:07.621Z,67.70
2019-05-02T18:08:38.678Z,68.50
2019-05-02T18:11:09.240Z,70.00
2019-05-02T18:13:39.715Z,71.00
2019-05-02T18:16:15.033Z,72.30
2019-05-02T18:18:45.689Z,73.90
2019-05-02T18:21:17.235Z,77.50
2019-05-02T18:23:47.508Z,79.40
2019-05-02T18:26:19.499Z,81.10
2019-05-02T18:28:49.992Z,82.80
2019-05-02T18:31:21.697Z,84.50
2019-05-02T18:33:52.276Z,85.80
2019-05-02T18:36:26.832Z,86.00
2019-05-02T18:39:00.669Z,86.00
2019-05-02T18:41:27.851Z,86.20
2019-05-02T18:43:58.426Z,87.30
2019-05-02T18:46:28.915Z,88.40
2019-05-02T18:48:59.424Z,90.10
2019-05-02T18:51:31.977Z,90.50
2019-05-02T18:54:04.593Z,90.50
2019-05-02T18:56:44.232Z,90.80
2019-05-02T18:59:06.862Z,91.00
2019-05-02T19:01:37.416Z,91.20
2019-05-02T19:04:08.051Z,91.70
2019-05-02T19:06:39.151Z,92.20
2019-05-02T19:09:12.781Z,92.20
2019-05-02T19:11:45.137Z,92.40
2019-05-02T19:14:21.224Z,92.70
2019-05-02T19:16:47.866Z,92.70
2019-05-02T19:19:18.339Z,92.80
2019-05-02T19:21:51.632Z,92.80
2019-05-02T19:24:27.486Z,92.70
2019-05-02T19:26:59.055Z,92.90
2019-05-02T19:29:31.904Z,93.50
2019-05-02T19:32:02.911Z,93.60
2019-05-02T19:34:33.706Z,93.90
2019-05-02T19:37:04.648Z,94.20
2019-05-02T19:39:38.971Z,94.40
2019-05-02T19:42:12.299Z,94.70
2019-05-02T19:44:43.055Z,94.90
2019-05-02T19:47:17.495Z,94.60
2019-05-02T19:49:47.252Z,94.90
2019-05-02T19:52:18.016Z,94.90
2019-05-02T19:54:48.503Z,95.10
2019-05-02T19:57:38.369Z,95.50
2019-05-02T20:00:08.978Z,95.60
2019-05-02T20:02:42.278Z,95.90
2019-05-02T20:05:16.459Z,96.30
2019-05-02T20:07:44.441Z,96.20
2019-05-02T20:10:17.898Z,95.90
2019-05-02T20:12:50.900Z,96.20
2019-05-02T20:15:26.938Z,96.50
2019-05-02T20:18:00.631Z,96.50
2019-05-02T20:21:05.173Z,96.50
2019-05-02T20:23:35.939Z,96.40
2019-05-02T20:26:09.405Z,96.40
2019-05-02T20:28:39.472Z,96.60
2019-05-02T20:31:12.313Z,96.80
2019-05-02T20:33:43.218Z,96.80
2019-05-02T20:36:13.699Z,97.10
2019-05-02T20:38:44.199Z,97.20
2019-05-02T20:41:14.753Z,97.20
2019-05-02T20:43:45.247Z,97.20
2019-05-02T20:46:15.831Z,96.80
2019-05-02T20:48:46.406Z,96.80
2019-05-02T20:51:16.909Z,97.00
2019-05-02T20:53:47.414Z,97.10
2019-05-02T20:56:17.883Z,97.30
2019-05-02T20:58:48.455Z,97.30
2019-05-02T21:01:18.917Z,97.40
2019-05-02T21:03:49.413Z,97.40
2019-05-02T21:06:31.028Z,97.70
2019-05-02T21:09:02.229Z,97.80
2019-05-02T21:11:32.986Z,97.90
2019-05-02T21:14:03.496Z,97.80
2019-05-02T21:16:34.032Z,97.90
2019-05-02T21:19:04.746Z,98.00
2019-05-02T21:21:39.901Z,98.10
2019-05-02T21:24:09.416Z,98.40
2019-05-02T21:26:41.995Z,98.50
2019-05-02T21:29:12.265Z,98.50
2019-05-02T21:31:42.742Z,98.50
2019-05-02T21:34:13.244Z,98.50
2019-05-02T21:36:43.721Z,98.60
2019-05-02T21:39:14.383Z,98.50
2019-05-02T21:41:44.849Z,98.50
2019-05-02T21:44:15.430Z,98.40
2019-05-02T21:46:46.266Z,98.50
2019-05-02T21:49:19.062Z,98.50
2019-05-02T21:51:51.836Z,98.50
2019-05-02T21:54:27.012Z,98.60
2019-05-02T21:57:00.035Z,98.60
2019-05-02T21:59:30.559Z,98.70
2019-05-02T22:02:05.176Z,98.80
2019-05-02T22:04:36.387Z,98.70
2019-05-02T22:07:06.951Z,98.80
2019-05-02T22:09:37.424Z,98.90
2019-05-02T22:12:08.003Z,99.00
2019-05-02T22:14:38.471Z,99.00
2019-05-02T22:17:12.596Z,99.10
2019-05-02T22:19:42.839Z,98.90
2019-05-02T22:22:13.708Z,99.10
2019-05-02T22:24:44.180Z,99.00
2019-05-02T22:27:14.697Z,99.00
2019-05-02T22:29:45.164Z,99.00
2019-05-02T22:32:15.654Z,99.00
2019-05-02T22:34:47.686Z,99.10
2019-05-02T22:37:21.957Z,99.20
2019-05-02T22:39:53.632Z,99.30
2019-05-02T22:42:24.251Z,99.30
2019-05-02T22:44:54.737Z,99.30
2019-05-02T22:47:25.346Z,99.10
2019-05-02T22:49:55.863Z,99.10
2019-05-02T22:52:26.329Z,99.20
2019-05-02T22:54:56.831Z,99.20
2019-05-02T22:57:28.841Z,99.20
2019-05-02T22:59:59.357Z,99.20
2019-05-02T23:02:29.826Z,99.10
2019-05-02T23:05:01.973Z,99.00
2019-05-02T23:07:32.696Z,99.40
2019-05-02T23:10:04.305Z,99.50
2019-05-02T23:12:35.440Z,99.20
2019-05-02T23:15:07.361Z,99.30
2019-05-02T23:17:37.848Z,99.30
2019-05-02T23:20:08.456Z,99.40
2019-05-02T23:22:38.960Z,99.50
2019-05-02T23:25:09.260Z,99.60
2019-05-02T23:27:42.405Z,99.60
2019-05-02T23:30:15.725Z,99.60
2019-05-02T23:32:46.220Z,99.80
2019-05-02T23:35:16.766Z,99.70
2019-05-02T23:37:48.383Z,99.70
2019-05-02T23:40:18.986Z,99.70
2019-05-02T23:42:50.054Z,99.70
2019-05-02T23:45:22.470Z,99.70
2019-05-02T23:47:52.884Z,99.80
2019-05-02T23:50:23.426Z,99.60
2019-05-02T23:52:53.923Z,99.60
2019-05-02T23:55:24.441Z,99.70
2019-05-02T23:57:54.913Z,99.80
